Alamo, TN

6:27 AM CST on January 30, 2015 (GMT -0600)
Crossroads Community | Change Station
CLOSE
Current Station
Personal Weather Station
Location: Bells, TN
Elevation: 367 ft
Nearby Weather Stations

Elev 367 ft 35.74 °N, 89.12 °W | Updated 11 minutes ago

Mostly Cloudy
Mostly Cloudy
35.1 °F
Feels Like 31 °F
N
4.7
Wind Variable Wind from NNE

Today
High -- | Low -- °F
--% Chance of Precip.
Yesterday
High -- | Low -- °F
Precip. -- in
6:58 AM 5:21 PM
Waxing Gibbous, 82% visible
Pressure 30.45 in
Visibility 10.0 miles
Clouds Overcast 3000 ft
Windchill 31 °F
Dew Point 27 °F
Humidity 72%
Rainfall 0.00 in
Snow Depth Not available.
UV 0 out of 12
Pollen 1.90 out of 12
Air Quality Not available.
Flu Activity Not available.
METAR KMKL 301153Z AUTO 35013KT 10SM OVC030 02/M04 A3045 RMK AO2 SLP312 T00221044 10061 20022 53010

More Conditions Fewer Conditions

Pressure 30.45 in
Visibility 10.0 miles
Clouds Overcast 3000 ft
Windchill 31 °F
Dew Point 27 °F
Humidity 72%
Rainfall 0.00 in
Snow Depth Not available.
UV 0 out of 12
Pollen 1.90 out of 12
Air Quality Not available.
Flu Activity Not available.
METAR KMKL 301153Z AUTO 35013KT 10SM OVC030 02/M04 A3045 RMK AO2 SLP312 T00221044 10061 20022 53010

More Conditions Fewer Conditions

10-Day Weather Forecast

Almanac

Astronomy

Jan. 30, 2015 Rise Set
Actual Time
Civil Twilight
Nautical Twilight
Astronomical Twilight
Moon
Length of Visible Light
Length of Day
Tomorrow will be .
, % of the Moon is Illuminated

Today's Extremes

State Highs State Lows

Community

WunderPhotos

Upload Photos

1,791,738 photos uploaded!

WunderBlogs® & News

Nearby

Air Quality

  Air Quality AQ Index Pollutant
Not available.

Snow Depth

Station Depth Elevation

Earthquake Activity

City Distance Mag. Time & Date
Minimum magnitude displayed is 2.5.

Coastal Water Temperatures

Place Temperature

Nearby Weather Stations